Terminal Aerodrome Forecast
Issued by NWS

Home | Current Version | Previous Version | Text Only | Print | Product List | Glossary On
Versions: 1 2 3 4 5 6 7 8 9 10 11 12 13
000
FTUS44 KLZK 010500
TAFHRO
TAF
KHRO 010520Z 0106/0206 14003KT P6SM SKC
     FM011400 15009KT P6SM BKN250
     FM011700 16008KT P6SM SCT050 BKN150=

USA.gov is the U.S. government's official web portal to all federal, state and local government web resources and services.